sensor_id;sensor_type;location;lat;lon;timestamp;P1;durP1;ratioP1;P2;durP2;ratioP2
46110;SDS011;31849;55.992;37.252;2023-02-15T00:04:54;3.25;;;1.15;;
46110;SDS011;31849;55.992;37.252;2023-02-15T00:09:59;3.95;;;1.20;;
46110;SDS011;31849;55.992;37.252;2023-02-15T00:15:04;7.53;;;1.83;;
46110;SDS011;31849;55.992;37.252;2023-02-15T00:20:08;8.43;;;1.58;;
46110;SDS011;31849;55.992;37.252;2023-02-15T00:25:14;6.53;;;1.15;;
46110;SDS011;31849;55.992;37.252;2023-02-15T00:30:17;5.35;;;1.40;;
46110;SDS011;31849;55.992;37.252;2023-02-15T00:35:21;3.13;;;0.90;;
46110;SDS011;31849;55.992;37.252;2023-02-15T00:40:26;4.50;;;1.13;;
46110;SDS011;31849;55.992;37.252;2023-02-15T00:50:32;3.83;;;0.93;;
46110;SDS011;31849;55.992;37.252;2023-02-15T00:55:37;2.95;;;1.40;;
46110;SDS011;31849;55.992;37.252;2023-02-15T01:00:42;5.07;;;1.45;;
46110;SDS011;31849;55.992;37.252;2023-02-15T01:05:47;3.33;;;1.20;;
46110;SDS011;31849;55.992;37.252;2023-02-15T01:10:53;3.42;;;0.95;;
46110;SDS011;31849;55.992;37.252;2023-02-15T01:15:56;4.78;;;1.15;;
46110;SDS011;31849;55.992;37.252;2023-02-15T01:21:08;4.15;;;1.00;;
46110;SDS011;31849;55.992;37.252;2023-02-15T01:26:14;5.88;;;1.13;;
46110;SDS011;31849;55.992;37.252;2023-02-15T01:31:19;3.83;;;0.80;;
46110;SDS011;31849;55.992;37.252;2023-02-15T01:36:23;3.50;;;1.00;;
46110;SDS011;31849;55.992;37.252;2023-02-15T01:41:28;4.72;;;1.15;;
46110;SDS011;31849;55.992;37.252;2023-02-15T01:46:33;5.88;;;1.10;;
46110;SDS011;31849;55.992;37.252;2023-02-15T01:51:40;3.90;;;1.40;;
46110;SDS011;31849;55.992;37.252;2023-02-15T01:56:49;7.75;;;1.20;;
46110;SDS011;31849;55.992;37.252;2023-02-15T02:01:53;5.10;;;1.40;;
46110;SDS011;31849;55.992;37.252;2023-02-15T02:07:02;4.00;;;1.20;;
46110;SDS011;31849;55.992;37.252;2023-02-15T02:12:08;3.38;;;1.17;;
46110;SDS011;31849;55.992;37.252;2023-02-15T02:17:14;3.25;;;1.33;;
46110;SDS011;31849;55.992;37.252;2023-02-15T02:28:13;5.90;;;1.52;;
46110;SDS011;31849;55.992;37.252;2023-02-15T02:33:41;6.20;;;1.20;;
46110;SDS011;31849;55.992;37.252;2023-02-15T02:39:06;3.85;;;1.65;;
46110;SDS011;31849;55.992;37.252;2023-02-15T02:44:16;4.32;;;1.10;;
46110;SDS011;31849;55.992;37.252;2023-02-15T02:49:30;5.50;;;1.10;;
46110;SDS011;31849;55.992;37.252;2023-02-15T02:54:35;3.33;;;0.90;;
46110;SDS011;31849;55.992;37.252;2023-02-15T02:59:40;3.25;;;1.20;;
46110;SDS011;31849;55.992;37.252;2023-02-15T03:04:49;5.50;;;1.10;;
46110;SDS011;31849;55.992;37.252;2023-02-15T03:10:00;3.63;;;1.02;;
46110;SDS011;31849;55.992;37.252;2023-02-15T03:15:06;3.78;;;1.15;;
46110;SDS011;31849;55.992;37.252;2023-02-15T03:20:15;4.68;;;1.20;;
46110;SDS011;31849;55.992;37.252;2023-02-15T03:25:27;4.75;;;1.40;;
46110;SDS011;31849;55.992;37.252;2023-02-15T03:30:36;6.22;;;2.08;;
46110;SDS011;31849;55.992;37.252;2023-02-15T03:35:44;5.05;;;1.20;;
46110;SDS011;31849;55.992;37.252;2023-02-15T03:40:53;3.45;;;1.20;;
46110;SDS011;31849;55.992;37.252;2023-02-15T03:46:15;6.22;;;1.48;;
46110;SDS011;31849;55.992;37.252;2023-02-15T03:51:29;3.97;;;1.15;;
46110;SDS011;31849;55.992;37.252;2023-02-15T03:56:37;5.75;;;1.20;;
46110;SDS011;31849;55.992;37.252;2023-02-15T04:01:44;7.18;;;1.23;;
46110;SDS011;31849;55.992;37.252;2023-02-15T04:07:03;6.25;;;1.60;;
46110;SDS011;31849;55.992;37.252;2023-02-15T04:12:08;3.78;;;1.20;;
46110;SDS011;31849;55.992;37.252;2023-02-15T04:17:11;7.03;;;1.98;;
46110;SDS011;31849;55.992;37.252;2023-02-15T04:22:16;4.35;;;1.20;;
46110;SDS011;31849;55.992;37.252;2023-02-15T04:27:37;5.95;;;1.42;;
46110;SDS011;31849;55.992;37.252;2023-02-15T04:32:41;3.77;;;1.13;;
46110;SDS011;31849;55.992;37.252;2023-02-15T04:37:46;4.60;;;1.63;;
46110;SDS011;31849;55.992;37.252;2023-02-15T04:42:49;5.38;;;1.60;;
46110;SDS011;31849;55.992;37.252;2023-02-15T04:47:53;6.85;;;1.60;;
46110;SDS011;31849;55.992;37.252;2023-02-15T04:52:58;7.15;;;1.63;;
46110;SDS011;31849;55.992;37.252;2023-02-15T04:58:02;5.97;;;2.33;;
46110;SDS011;31849;55.992;37.252;2023-02-15T05:03:06;6.67;;;1.90;;
46110;SDS011;31849;55.992;37.252;2023-02-15T05:08:11;4.80;;;1.20;;
46110;SDS011;31849;55.992;37.252;2023-02-15T05:13:15;3.72;;;1.30;;
46110;SDS011;31849;55.992;37.252;2023-02-15T05:18:19;3.83;;;1.60;;
46110;SDS011;31849;55.992;37.252;2023-02-15T05:28:28;5.83;;;1.87;;
46110;SDS011;31849;55.992;37.252;2023-02-15T05:33:32;4.78;;;1.65;;
46110;SDS011;31849;55.992;37.252;2023-02-15T05:38:37;4.72;;;1.70;;
46110;SDS011;31849;55.992;37.252;2023-02-15T05:43:41;5.68;;;1.75;;
46110;SDS011;31849;55.992;37.252;2023-02-15T05:48:45;3.60;;;1.60;;
46110;SDS011;31849;55.992;37.252;2023-02-15T05:53:50;4.47;;;1.80;;
46110;SDS011;31849;55.992;37.252;2023-02-15T05:58:53;7.45;;;2.40;;
46110;SDS011;31849;55.992;37.252;2023-02-15T06:03:57;5.10;;;1.48;;
46110;SDS011;31849;55.992;37.252;2023-02-15T06:09:02;6.65;;;2.13;;
46110;SDS011;31849;55.992;37.252;2023-02-15T06:14:06;6.30;;;2.03;;
46110;SDS011;31849;55.992;37.252;2023-02-15T06:19:09;5.88;;;1.58;;
46110;SDS011;31849;55.992;37.252;2023-02-15T06:24:14;4.57;;;1.60;;
46110;SDS011;31849;55.992;37.252;2023-02-15T06:34:20;7.95;;;1.73;;
46110;SDS011;31849;55.992;37.252;2023-02-15T06:39:26;6.85;;;1.90;;
46110;SDS011;31849;55.992;37.252;2023-02-15T06:44:29;7.05;;;2.22;;
46110;SDS011;31849;55.992;37.252;2023-02-15T06:49:32;3.67;;;1.80;;
46110;SDS011;31849;55.992;37.252;2023-02-15T06:54:37;4.75;;;1.85;;
46110;SDS011;31849;55.992;37.252;2023-02-15T07:04:44;6.68;;;2.03;;
46110;SDS011;31849;55.992;37.252;2023-02-15T07:09:49;6.00;;;1.92;;
46110;SDS011;31849;55.992;37.252;2023-02-15T07:15:01;7.38;;;2.03;;
46110;SDS011;31849;55.992;37.252;2023-02-15T07:20:07;7.13;;;2.13;;
46110;SDS011;31849;55.992;37.252;2023-02-15T07:25:13;6.22;;;1.98;;
46110;SDS011;31849;55.992;37.252;2023-02-15T07:30:18;5.63;;;2.00;;
46110;SDS011;31849;55.992;37.252;2023-02-15T07:35:22;6.80;;;1.95;;
46110;SDS011;31849;55.992;37.252;2023-02-15T07:40:25;6.50;;;1.80;;
46110;SDS011;31849;55.992;37.252;2023-02-15T07:45:30;6.35;;;1.75;;
46110;SDS011;31849;55.992;37.252;2023-02-15T07:55:37;6.38;;;2.03;;
46110;SDS011;31849;55.992;37.252;2023-02-15T08:00:42;4.63;;;1.75;;
46110;SDS011;31849;55.992;37.252;2023-02-15T08:06:03;6.22;;;1.92;;
46110;SDS011;31849;55.992;37.252;2023-02-15T08:11:13;5.85;;;1.67;;
46110;SDS011;31849;55.992;37.252;2023-02-15T08:16:40;3.25;;;1.48;;
46110;SDS011;31849;55.992;37.252;2023-02-15T08:21:45;4.93;;;1.83;;
46110;SDS011;31849;55.992;37.252;2023-02-15T08:26:50;8.05;;;2.00;;
46110;SDS011;31849;55.992;37.252;2023-02-15T08:31:56;6.43;;;1.90;;
46110;SDS011;31849;55.992;37.252;2023-02-15T08:37:04;7.97;;;1.98;;
46110;SDS011;31849;55.992;37.252;2023-02-15T08:42:08;4.45;;;1.88;;
46110;SDS011;31849;55.992;37.252;2023-02-15T08:47:13;4.68;;;2.10;;
46110;SDS011;31849;55.992;37.252;2023-02-15T08:57:19;4.20;;;1.70;;
46110;SDS011;31849;55.992;37.252;2023-02-15T09:02:24;5.75;;;2.00;;
46110;SDS011;31849;55.992;37.252;2023-02-15T09:07:28;5.18;;;1.88;;
46110;SDS011;31849;55.992;37.252;2023-02-15T09:12:31;4.55;;;1.95;;
46110;SDS011;31849;55.992;37.252;2023-02-15T09:17:36;5.78;;;2.00;;
46110;SDS011;31849;55.992;37.252;2023-02-15T09:27:43;5.22;;;1.77;;
46110;SDS011;31849;55.992;37.252;2023-02-15T09:32:48;5.00;;;1.70;;
46110;SDS011;31849;55.992;37.252;2023-02-15T09:43:08;3.25;;;1.38;;
46110;SDS011;31849;55.992;37.252;2023-02-15T09:53:57;6.45;;;1.60;;
46110;SDS011;31849;55.992;37.252;2023-02-15T09:59:15;4.50;;;1.48;;
46110;SDS011;31849;55.992;37.252;2023-02-15T10:04:36;17.13;;;1.77;;
46110;SDS011;31849;55.992;37.252;2023-02-15T10:09:51;2.63;;;1.02;;
46110;SDS011;31849;55.992;37.252;2023-02-15T10:20:18;4.90;;;1.50;;
46110;SDS011;31849;55.992;37.252;2023-02-15T10:25:32;4.78;;;1.38;;
46110;SDS011;31849;55.992;37.252;2023-02-15T10:30:46;4.03;;;1.60;;
46110;SDS011;31849;55.992;37.252;2023-02-15T10:35:56;3.05;;;1.40;;
46110;SDS011;31849;55.992;37.252;2023-02-15T10:41:13;4.60;;;1.60;;
46110;SDS011;31849;55.992;37.252;2023-02-15T10:46:34;3.55;;;1.70;;
46110;SDS011;31849;55.992;37.252;2023-02-15T10:51:52;5.60;;;1.52;;
46110;SDS011;31849;55.992;37.252;2023-02-15T10:57:10;4.10;;;1.55;;
46110;SDS011;31849;55.992;37.252;2023-02-15T11:02:25;3.28;;;1.60;;
46110;SDS011;31849;55.992;37.252;2023-02-15T11:07:41;4.45;;;1.38;;
46110;SDS011;31849;55.992;37.252;2023-02-15T11:12:48;4.82;;;1.40;;
46110;SDS011;31849;55.992;37.252;2023-02-15T11:17:55;5.25;;;1.70;;
46110;SDS011;31849;55.992;37.252;2023-02-15T11:23:06;5.65;;;1.50;;
46110;SDS011;31849;55.992;37.252;2023-02-15T11:28:18;5.55;;;1.60;;
46110;SDS011;31849;55.992;37.252;2023-02-15T11:33:27;5.90;;;1.88;;
46110;SDS011;31849;55.992;37.252;2023-02-15T11:38:35;5.30;;;1.60;;
46110;SDS011;31849;55.992;37.252;2023-02-15T11:43:43;6.55;;;1.50;;
46110;SDS011;31849;55.992;37.252;2023-02-15T11:48:53;4.10;;;1.60;;
46110;SDS011;31849;55.992;37.252;2023-02-15T11:53:58;2.72;;;1.33;;
46110;SDS011;31849;55.992;37.252;2023-02-15T11:59:03;5.85;;;1.67;;
46110;SDS011;31849;55.992;37.252;2023-02-15T12:04:14;3.53;;;1.55;;
46110;SDS011;31849;55.992;37.252;2023-02-15T12:09:26;2.47;;;1.10;;
46110;SDS011;31849;55.992;37.252;2023-02-15T12:14:40;2.80;;;1.30;;
46110;SDS011;31849;55.992;37.252;2023-02-15T12:19:50;3.80;;;1.23;;
46110;SDS011;31849;55.992;37.252;2023-02-15T12:30:04;3.75;;;1.40;;
46110;SDS011;31849;55.992;37.252;2023-02-15T12:35:21;2.75;;;1.17;;
46110;SDS011;31849;55.992;37.252;2023-02-15T12:40:32;5.38;;;1.40;;
46110;SDS011;31849;55.992;37.252;2023-02-15T12:45:37;2.55;;;1.08;;
46110;SDS011;31849;55.992;37.252;2023-02-15T12:50:41;2.45;;;1.20;;
46110;SDS011;31849;55.992;37.252;2023-02-15T12:55:50;5.22;;;1.30;;
46110;SDS011;31849;55.992;37.252;2023-02-15T13:01:03;3.63;;;1.35;;
46110;SDS011;31849;55.992;37.252;2023-02-15T13:06:14;2.50;;;1.10;;
46110;SDS011;31849;55.992;37.252;2023-02-15T13:11:22;3.63;;;1.30;;
46110;SDS011;31849;55.992;37.252;2023-02-15T13:16:32;4.63;;;1.48;;
46110;SDS011;31849;55.992;37.252;2023-02-15T13:21:39;3.80;;;1.40;;
46110;SDS011;31849;55.992;37.252;2023-02-15T13:26:47;4.70;;;1.38;;
46110;SDS011;31849;55.992;37.252;2023-02-15T13:31:52;4.20;;;1.40;;
46110;SDS011;31849;55.992;37.252;2023-02-15T13:36:57;3.78;;;1.20;;
46110;SDS011;31849;55.992;37.252;2023-02-15T13:42:14;2.88;;;1.33;;
46110;SDS011;31849;55.992;37.252;2023-02-15T13:47:25;5.32;;;1.45;;
46110;SDS011;31849;55.992;37.252;2023-02-15T13:52:33;3.10;;;1.50;;
46110;SDS011;31849;55.992;37.252;2023-02-15T13:57:56;2.80;;;1.10;;
46110;SDS011;31849;55.992;37.252;2023-02-15T14:03:19;3.67;;;1.20;;
46110;SDS011;31849;55.992;37.252;2023-02-15T14:08:46;3.38;;;1.38;;
46110;SDS011;31849;55.992;37.252;2023-02-15T14:14:19;3.22;;;1.60;;
46110;SDS011;31849;55.992;37.252;2023-02-15T14:19:47;2.80;;;1.40;;
46110;SDS011;31849;55.992;37.252;2023-02-15T14:24:58;3.60;;;1.80;;
46110;SDS011;31849;55.992;37.252;2023-02-15T14:30:14;5.85;;;1.65;;
46110;SDS011;31849;55.992;37.252;2023-02-15T14:35:23;3.50;;;1.50;;
46110;SDS011;31849;55.992;37.252;2023-02-15T14:40:32;3.33;;;1.38;;
46110;SDS011;31849;55.992;37.252;2023-02-15T14:46:03;2.53;;;1.30;;
46110;SDS011;31849;55.992;37.252;2023-02-15T15:02:27;2.80;;;1.42;;
46110;SDS011;31849;55.992;37.252;2023-02-15T15:07:42;3.20;;;1.30;;
46110;SDS011;31849;55.992;37.252;2023-02-15T15:12:49;3.60;;;1.50;;
46110;SDS011;31849;55.992;37.252;2023-02-15T15:17:56;3.53;;;1.70;;
46110;SDS011;31849;55.992;37.252;2023-02-15T15:28:55;3.13;;;1.50;;
46110;SDS011;31849;55.992;37.252;2023-02-15T15:34:13;5.53;;;1.63;;
46110;SDS011;31849;55.992;37.252;2023-02-15T15:40:00;6.30;;;1.33;;
46110;SDS011;31849;55.992;37.252;2023-02-15T15:51:13;3.75;;;1.65;;
46110;SDS011;31849;55.992;37.252;2023-02-15T15:56:21;4.03;;;1.40;;
46110;SDS011;31849;55.992;37.252;2023-02-15T16:01:30;2.90;;;1.42;;
46110;SDS011;31849;55.992;37.252;2023-02-15T16:06:39;3.10;;;1.50;;
46110;SDS011;31849;55.992;37.252;2023-02-15T16:11:44;3.85;;;1.50;;
46110;SDS011;31849;55.992;37.252;2023-02-15T16:16:50;2.92;;;1.52;;
46110;SDS011;31849;55.992;37.252;2023-02-15T16:21:59;3.25;;;1.50;;
46110;SDS011;31849;55.992;37.252;2023-02-15T16:27:16;3.63;;;1.75;;
46110;SDS011;31849;55.992;37.252;2023-02-15T16:32:36;3.33;;;1.20;;
46110;SDS011;31849;55.992;37.252;2023-02-15T16:37:40;4.32;;;1.20;;
46110;SDS011;31849;55.992;37.252;2023-02-15T16:42:44;3.53;;;1.10;;
46110;SDS011;31849;55.992;37.252;2023-02-15T16:47:48;1.98;;;1.10;;
46110;SDS011;31849;55.992;37.252;2023-02-15T16:52:57;2.03;;;0.90;;
46110;SDS011;31849;55.992;37.252;2023-02-15T16:58:02;2.28;;;1.00;;
46110;SDS011;31849;55.992;37.252;2023-02-15T17:03:19;2.55;;;1.30;;
46110;SDS011;31849;55.992;37.252;2023-02-15T17:08:26;3.53;;;1.63;;
46110;SDS011;31849;55.992;37.252;2023-02-15T17:13:32;3.92;;;1.52;;
46110;SDS011;31849;55.992;37.252;2023-02-15T17:18:38;2.70;;;1.40;;
46110;SDS011;31849;55.992;37.252;2023-02-15T17:23:48;2.80;;;1.27;;
46110;SDS011;31849;55.992;37.252;2023-02-15T17:28:53;2.55;;;1.08;;
46110;SDS011;31849;55.992;37.252;2023-02-15T17:33:59;2.15;;;1.10;;
46110;SDS011;31849;55.992;37.252;2023-02-15T17:39:06;2.20;;;1.15;;
46110;SDS011;31849;55.992;37.252;2023-02-15T17:44:21;2.42;;;0.95;;
46110;SDS011;31849;55.992;37.252;2023-02-15T17:49:25;3.38;;;1.20;;
46110;SDS011;31849;55.992;37.252;2023-02-15T17:54:31;2.00;;;1.10;;
46110;SDS011;31849;55.992;37.252;2023-02-15T17:59:51;1.65;;;0.90;;
46110;SDS011;31849;55.992;37.252;2023-02-15T18:05:13;2.85;;;1.00;;
46110;SDS011;31849;55.992;37.252;2023-02-15T18:10:36;2.67;;;0.88;;
46110;SDS011;31849;55.992;37.252;2023-02-15T18:15:56;1.67;;;0.73;;
46110;SDS011;31849;55.992;37.252;2023-02-15T18:21:00;2.92;;;0.93;;
46110;SDS011;31849;55.992;37.252;2023-02-15T18:26:06;3.35;;;0.80;;
46110;SDS011;31849;55.992;37.252;2023-02-15T18:31:12;1.48;;;0.70;;
46110;SDS011;31849;55.992;37.252;2023-02-15T18:36:17;2.70;;;1.13;;
46110;SDS011;31849;55.992;37.252;2023-02-15T18:41:25;1.48;;;0.77;;
46110;SDS011;31849;55.992;37.252;2023-02-15T18:46:29;1.90;;;0.98;;
46110;SDS011;31849;55.992;37.252;2023-02-15T18:51:32;1.92;;;0.82;;
46110;SDS011;31849;55.992;37.252;2023-02-15T18:56:42;2.05;;;1.17;;
46110;SDS011;31849;55.992;37.252;2023-02-15T19:01:45;2.38;;;0.98;;
46110;SDS011;31849;55.992;37.252;2023-02-15T19:07:07;2.38;;;1.13;;
46110;SDS011;31849;55.992;37.252;2023-02-15T19:12:19;2.17;;;0.98;;
46110;SDS011;31849;55.992;37.252;2023-02-15T19:17:23;2.08;;;1.25;;
46110;SDS011;31849;55.992;37.252;2023-02-15T19:22:28;1.77;;;0.90;;
46110;SDS011;31849;55.992;37.252;2023-02-15T19:27:34;2.25;;;1.00;;
46110;SDS011;31849;55.992;37.252;2023-02-15T19:32:38;1.98;;;0.95;;
46110;SDS011;31849;55.992;37.252;2023-02-15T19:37:42;2.35;;;0.98;;
46110;SDS011;31849;55.992;37.252;2023-02-15T19:42:49;3.38;;;1.10;;
46110;SDS011;31849;55.992;37.252;2023-02-15T19:47:54;2.10;;;1.10;;
46110;SDS011;31849;55.992;37.252;2023-02-15T19:52:57;1.63;;;0.95;;
46110;SDS011;31849;55.992;37.252;2023-02-15T19:58:02;1.92;;;0.95;;
46110;SDS011;31849;55.992;37.252;2023-02-15T20:03:06;1.95;;;1.08;;
46110;SDS011;31849;55.992;37.252;2023-02-15T20:08:13;2.30;;;1.00;;
46110;SDS011;31849;55.992;37.252;2023-02-15T20:13:20;2.47;;;1.10;;
46110;SDS011;31849;55.992;37.252;2023-02-15T20:23:27;3.00;;;1.00;;
46110;SDS011;31849;55.992;37.252;2023-02-15T20:28:34;2.70;;;1.42;;
46110;SDS011;31849;55.992;37.252;2023-02-15T20:33:38;2.20;;;1.10;;
46110;SDS011;31849;55.992;37.252;2023-02-15T20:38:41;2.25;;;1.10;;
46110;SDS011;31849;55.992;37.252;2023-02-15T20:43:47;2.58;;;1.23;;
46110;SDS011;31849;55.992;37.252;2023-02-15T20:48:50;2.75;;;1.20;;
46110;SDS011;31849;55.992;37.252;2023-02-15T20:53:54;2.53;;;1.27;;
46110;SDS011;31849;55.992;37.252;2023-02-15T20:58:59;3.03;;;1.30;;
46110;SDS011;31849;55.992;37.252;2023-02-15T21:04:02;2.17;;;1.02;;
46110;SDS011;31849;55.992;37.252;2023-02-15T21:09:10;2.03;;;1.02;;
46110;SDS011;31849;55.992;37.252;2023-02-15T21:14:17;3.25;;;1.23;;
46110;SDS011;31849;55.992;37.252;2023-02-15T21:19:23;2.17;;;1.00;;
46110;SDS011;31849;55.992;37.252;2023-02-15T21:29:32;2.25;;;1.20;;
46110;SDS011;31849;55.992;37.252;2023-02-15T21:34:36;3.72;;;1.08;;
46110;SDS011;31849;55.992;37.252;2023-02-15T21:39:40;1.85;;;0.73;;
46110;SDS011;31849;55.992;37.252;2023-02-15T21:44:45;2.25;;;1.10;;
46110;SDS011;31849;55.992;37.252;2023-02-15T21:50:15;2.03;;;0.90;;
46110;SDS011;31849;55.992;37.252;2023-02-15T21:55:36;1.55;;;0.80;;
46110;SDS011;31849;55.992;37.252;2023-02-15T22:00:41;1.85;;;0.85;;
46110;SDS011;31849;55.992;37.252;2023-02-15T22:05:45;2.45;;;1.33;;
46110;SDS011;31849;55.992;37.252;2023-02-15T22:10:48;2.00;;;1.00;;
46110;SDS011;31849;55.992;37.252;2023-02-15T22:15:53;1.98;;;0.80;;
46110;SDS011;31849;55.992;37.252;2023-02-15T22:20:57;1.92;;;1.08;;
46110;SDS011;31849;55.992;37.252;2023-02-15T22:26:02;1.67;;;0.87;;
46110;SDS011;31849;55.992;37.252;2023-02-15T22:31:11;2.63;;;1.08;;
46110;SDS011;31849;55.992;37.252;2023-02-15T22:36:20;3.63;;;1.17;;
46110;SDS011;31849;55.992;37.252;2023-02-15T22:41:26;1.67;;;0.93;;
46110;SDS011;31849;55.992;37.252;2023-02-15T22:46:33;2.53;;;1.02;;
46110;SDS011;31849;55.992;37.252;2023-02-15T22:51:39;3.58;;;1.17;;
46110;SDS011;31849;55.992;37.252;2023-02-15T22:56:44;1.42;;;0.90;;
46110;SDS011;31849;55.992;37.252;2023-02-15T23:01:50;2.17;;;1.05;;
46110;SDS011;31849;55.992;37.252;2023-02-15T23:06:55;2.22;;;0.90;;
46110;SDS011;31849;55.992;37.252;2023-02-15T23:12:01;2.67;;;1.00;;
46110;SDS011;31849;55.992;37.252;2023-02-15T23:17:07;3.28;;;1.00;;
46110;SDS011;31849;55.992;37.252;2023-02-15T23:22:11;3.33;;;1.10;;
46110;SDS011;31849;55.992;37.252;2023-02-15T23:27:16;1.95;;;0.93;;
46110;SDS011;31849;55.992;37.252;2023-02-15T23:32:39;2.83;;;1.10;;
46110;SDS011;31849;55.992;37.252;2023-02-15T23:37:43;3.38;;;0.93;;
46110;SDS011;31849;55.992;37.252;2023-02-15T23:42:46;3.22;;;1.30;;
46110;SDS011;31849;55.992;37.252;2023-02-15T23:47:51;2.80;;;1.15;;
46110;SDS011;31849;55.992;37.252;2023-02-15T23:53:12;3.42;;;1.30;;
46110;SDS011;31849;55.992;37.252;2023-02-15T23:58:16;2.35;;;1.23;;
